Aughnacloy, United Kingdom
Current Conditions -  °F | °C
As of 11:20 PM on Monday 20 Oct 2014 (Local Time) from EGAA Reporting Station
Light Rain Light Rain  
Wind Chill: 54°   Ceiling: 1900
Heat Index: 54°   Visibility: 6mi
Dew Point: 52°   Wind: 16mph
Humidity: 94%   Direction: 190°S
Pressure: 29.38"   Gusts: 28mph
Location:  54.41°N, 6.98°W
Report Text: EGAA 202220Z 19014G24KT 9999 -RA SCT015 BKN019 12/11 Q0995 RERA
Loading
Personal Weather Stations






























Interactive Weather Map
Tropical Storm Tracking
New forecast layout! Learn more

10-Day Weather Forecast

Advertisements
Track Severe Weather on mobile